sensor_id;sensor_type;location;lat;lon;timestamp;P1;durP1;ratioP1;P2;durP2;ratioP2
7199;SDS011;3641;49.082;8.200;2023-09-30T00:01:08;4.53;;;1.48;;
7199;SDS011;3641;49.082;8.200;2023-09-30T00:03:35;2.92;;;1.30;;
7199;SDS011;3641;49.082;8.200;2023-09-30T00:06:02;3.92;;;1.50;;
7199;SDS011;3641;49.082;8.200;2023-09-30T00:08:28;4.60;;;1.60;;
7199;SDS011;3641;49.082;8.200;2023-09-30T00:10:57;4.13;;;1.77;;
7199;SDS011;3641;49.082;8.200;2023-09-30T00:13:23;3.15;;;1.35;;
7199;SDS011;3641;49.082;8.200;2023-09-30T00:15:50;3.38;;;1.40;;
7199;SDS011;3641;49.082;8.200;2023-09-30T00:18:16;4.07;;;1.25;;
7199;SDS011;3641;49.082;8.200;2023-09-30T00:20:42;8.13;;;1.40;;
7199;SDS011;3641;49.082;8.200;2023-09-30T00:23:09;5.85;;;1.60;;
7199;SDS011;3641;49.082;8.200;2023-09-30T00:25:36;3.45;;;1.52;;
7199;SDS011;3641;49.082;8.200;2023-09-30T00:28:05;3.25;;;1.42;;
7199;SDS011;3641;49.082;8.200;2023-09-30T00:30:32;2.22;;;1.30;;
7199;SDS011;3641;49.082;8.200;2023-09-30T00:32:58;4.60;;;1.67;;
7199;SDS011;3641;49.082;8.200;2023-09-30T00:35:25;3.08;;;1.33;;
7199;SDS011;3641;49.082;8.200;2023-09-30T00:37:51;4.50;;;1.70;;
7199;SDS011;3641;49.082;8.200;2023-09-30T00:40:18;3.15;;;1.58;;
7199;SDS011;3641;49.082;8.200;2023-09-30T00:42:44;3.58;;;1.65;;
7199;SDS011;3641;49.082;8.200;2023-09-30T00:45:12;3.85;;;1.80;;
7199;SDS011;3641;49.082;8.200;2023-09-30T00:47:39;4.47;;;1.35;;
7199;SDS011;3641;49.082;8.200;2023-09-30T00:50:06;4.70;;;1.83;;
7199;SDS011;3641;49.082;8.200;2023-09-30T00:52:35;5.30;;;1.63;;
7199;SDS011;3641;49.082;8.200;2023-09-30T00:55:03;4.28;;;1.50;;
7199;SDS011;3641;49.082;8.200;2023-09-30T00:57:30;3.47;;;1.50;;
7199;SDS011;3641;49.082;8.200;2023-09-30T00:59:57;3.47;;;1.55;;
7199;SDS011;3641;49.082;8.200;2023-09-30T01:02:27;5.65;;;1.85;;
7199;SDS011;3641;49.082;8.200;2023-09-30T01:04:53;7.28;;;1.90;;
7199;SDS011;3641;49.082;8.200;2023-09-30T01:07:21;3.38;;;1.73;;
7199;SDS011;3641;49.082;8.200;2023-09-30T01:09:48;3.17;;;1.70;;
7199;SDS011;3641;49.082;8.200;2023-09-30T01:12:15;5.30;;;1.70;;
7199;SDS011;3641;49.082;8.200;2023-09-30T01:14:42;6.75;;;1.80;;
7199;SDS011;3641;49.082;8.200;2023-09-30T01:17:08;2.92;;;1.52;;
7199;SDS011;3641;49.082;8.200;2023-09-30T01:19:39;6.30;;;1.88;;
7199;SDS011;3641;49.082;8.200;2023-09-30T01:22:08;5.85;;;1.88;;
7199;SDS011;3641;49.082;8.200;2023-09-30T01:24:38;4.15;;;1.67;;
7199;SDS011;3641;49.082;8.200;2023-09-30T01:27:06;4.15;;;1.77;;
7199;SDS011;3641;49.082;8.200;2023-09-30T01:29:32;4.50;;;1.52;;
7199;SDS011;3641;49.082;8.200;2023-09-30T01:31:59;3.78;;;1.80;;
7199;SDS011;3641;49.082;8.200;2023-09-30T01:34:25;4.82;;;2.05;;
7199;SDS011;3641;49.082;8.200;2023-09-30T01:36:52;3.78;;;1.70;;
7199;SDS011;3641;49.082;8.200;2023-09-30T01:39:20;6.93;;;1.80;;
7199;SDS011;3641;49.082;8.200;2023-09-30T01:41:46;4.32;;;1.52;;
7199;SDS011;3641;49.082;8.200;2023-09-30T01:44:13;5.30;;;1.92;;
7199;SDS011;3641;49.082;8.200;2023-09-30T01:46:39;5.15;;;1.92;;
7199;SDS011;3641;49.082;8.200;2023-09-30T01:49:06;2.80;;;1.70;;
7199;SDS011;3641;49.082;8.200;2023-09-30T01:51:32;5.10;;;1.83;;
7199;SDS011;3641;49.082;8.200;2023-09-30T01:53:58;8.05;;;2.03;;
7199;SDS011;3641;49.082;8.200;2023-09-30T01:56:26;4.85;;;1.90;;
7199;SDS011;3641;49.082;8.200;2023-09-30T01:58:53;5.85;;;1.88;;
7199;SDS011;3641;49.082;8.200;2023-09-30T02:01:19;5.03;;;1.58;;
7199;SDS011;3641;49.082;8.200;2023-09-30T02:03:47;4.22;;;1.83;;
7199;SDS011;3641;49.082;8.200;2023-09-30T02:06:13;4.75;;;2.00;;
7199;SDS011;3641;49.082;8.200;2023-09-30T02:08:39;6.10;;;1.95;;
7199;SDS011;3641;49.082;8.200;2023-09-30T02:11:07;4.95;;;1.80;;
7199;SDS011;3641;49.082;8.200;2023-09-30T02:13:34;4.00;;;1.77;;
7199;SDS011;3641;49.082;8.200;2023-09-30T02:16:01;5.32;;;1.70;;
7199;SDS011;3641;49.082;8.200;2023-09-30T02:18:27;6.03;;;2.00;;
7199;SDS011;3641;49.082;8.200;2023-09-30T02:20:57;3.47;;;1.67;;
7199;SDS011;3641;49.082;8.200;2023-09-30T02:23:24;4.47;;;1.65;;
7199;SDS011;3641;49.082;8.200;2023-09-30T02:25:52;4.72;;;1.88;;
7199;SDS011;3641;49.082;8.200;2023-09-30T02:28:18;4.00;;;1.95;;
7199;SDS011;3641;49.082;8.200;2023-09-30T02:30:46;6.25;;;1.65;;
7199;SDS011;3641;49.082;8.200;2023-09-30T02:33:13;4.28;;;2.17;;
7199;SDS011;3641;49.082;8.200;2023-09-30T02:35:43;3.63;;;1.90;;
7199;SDS011;3641;49.082;8.200;2023-09-30T02:38:10;4.30;;;2.03;;
7199;SDS011;3641;49.082;8.200;2023-09-30T02:40:37;4.25;;;1.70;;
7199;SDS011;3641;49.082;8.200;2023-09-30T02:43:05;5.32;;;1.90;;
7199;SDS011;3641;49.082;8.200;2023-09-30T02:45:31;4.45;;;1.80;;
7199;SDS011;3641;49.082;8.200;2023-09-30T02:47:59;6.68;;;2.00;;
7199;SDS011;3641;49.082;8.200;2023-09-30T02:50:25;7.18;;;2.13;;
7199;SDS011;3641;49.082;8.200;2023-09-30T02:52:52;4.22;;;1.80;;
7199;SDS011;3641;49.082;8.200;2023-09-30T02:55:18;4.45;;;1.60;;
7199;SDS011;3641;49.082;8.200;2023-09-30T02:57:45;6.25;;;1.90;;
7199;SDS011;3641;49.082;8.200;2023-09-30T03:00:12;5.78;;;1.95;;
7199;SDS011;3641;49.082;8.200;2023-09-30T03:02:48;5.18;;;2.38;;
7199;SDS011;3641;49.082;8.200;2023-09-30T03:05:16;5.80;;;2.13;;
7199;SDS011;3641;49.082;8.200;2023-09-30T03:07:43;3.03;;;1.70;;
7199;SDS011;3641;49.082;8.200;2023-09-30T03:10:09;6.57;;;2.10;;
7199;SDS011;3641;49.082;8.200;2023-09-30T03:12:37;3.20;;;1.75;;
7199;SDS011;3641;49.082;8.200;2023-09-30T03:15:04;4.18;;;2.08;;
7199;SDS011;3641;49.082;8.200;2023-09-30T03:17:31;3.45;;;1.80;;
7199;SDS011;3641;49.082;8.200;2023-09-30T03:19:58;5.13;;;2.10;;
7199;SDS011;3641;49.082;8.200;2023-09-30T03:22:28;5.07;;;2.20;;
7199;SDS011;3641;49.082;8.200;2023-09-30T03:24:54;4.82;;;2.08;;
7199;SDS011;3641;49.082;8.200;2023-09-30T03:27:21;6.13;;;2.20;;
7199;SDS011;3641;49.082;8.200;2023-09-30T03:29:48;5.20;;;1.98;;
7199;SDS011;3641;49.082;8.200;2023-09-30T03:32:15;4.88;;;2.30;;
7199;SDS011;3641;49.082;8.200;2023-09-30T03:34:41;5.40;;;2.03;;
7199;SDS011;3641;49.082;8.200;2023-09-30T03:37:10;4.60;;;2.20;;
7199;SDS011;3641;49.082;8.200;2023-09-30T03:39:37;5.57;;;2.08;;
7199;SDS011;3641;49.082;8.200;2023-09-30T03:42:06;4.35;;;2.00;;
7199;SDS011;3641;49.082;8.200;2023-09-30T03:44:36;4.20;;;2.00;;
7199;SDS011;3641;49.082;8.200;2023-09-30T03:47:03;7.45;;;2.50;;
7199;SDS011;3641;49.082;8.200;2023-09-30T03:49:30;5.95;;;2.05;;
7199;SDS011;3641;49.082;8.200;2023-09-30T03:51:56;4.22;;;2.13;;
7199;SDS011;3641;49.082;8.200;2023-09-30T03:54:22;9.45;;;2.70;;
7199;SDS011;3641;49.082;8.200;2023-09-30T03:56:50;5.53;;;2.13;;
7199;SDS011;3641;49.082;8.200;2023-09-30T03:59:17;8.50;;;2.08;;
7199;SDS011;3641;49.082;8.200;2023-09-30T04:01:44;4.55;;;2.15;;
7199;SDS011;3641;49.082;8.200;2023-09-30T04:04:12;4.32;;;2.20;;
7199;SDS011;3641;49.082;8.200;2023-09-30T04:06:38;6.70;;;2.50;;
7199;SDS011;3641;49.082;8.200;2023-09-30T04:09:05;4.53;;;2.40;;
7199;SDS011;3641;49.082;8.200;2023-09-30T04:11:35;6.55;;;2.20;;
7199;SDS011;3641;49.082;8.200;2023-09-30T04:14:03;5.38;;;2.30;;
7199;SDS011;3641;49.082;8.200;2023-09-30T04:16:30;5.68;;;2.42;;
7199;SDS011;3641;49.082;8.200;2023-09-30T04:18:57;6.72;;;2.10;;
7199;SDS011;3641;49.082;8.200;2023-09-30T04:21:24;4.63;;;2.22;;
7199;SDS011;3641;49.082;8.200;2023-09-30T04:23:51;5.22;;;2.50;;
7199;SDS011;3641;49.082;8.200;2023-09-30T04:26:18;5.85;;;2.58;;
7199;SDS011;3641;49.082;8.200;2023-09-30T04:28:44;7.80;;;2.38;;
7199;SDS011;3641;49.082;8.200;2023-09-30T04:31:13;5.07;;;2.42;;
7199;SDS011;3641;49.082;8.200;2023-09-30T04:33:39;4.28;;;2.47;;
7199;SDS011;3641;49.082;8.200;2023-09-30T04:36:06;5.60;;;2.30;;
7199;SDS011;3641;49.082;8.200;2023-09-30T04:38:33;3.60;;;2.08;;
7199;SDS011;3641;49.082;8.200;2023-09-30T04:40:59;5.10;;;2.30;;
7199;SDS011;3641;49.082;8.200;2023-09-30T04:43:25;4.70;;;2.15;;
7199;SDS011;3641;49.082;8.200;2023-09-30T04:45:54;7.22;;;2.28;;
7199;SDS011;3641;49.082;8.200;2023-09-30T04:48:23;5.68;;;1.83;;
7199;SDS011;3641;49.082;8.200;2023-09-30T04:50:50;4.35;;;2.15;;
7199;SDS011;3641;49.082;8.200;2023-09-30T04:53:17;4.70;;;2.17;;
7199;SDS011;3641;49.082;8.200;2023-09-30T04:55:44;4.07;;;2.05;;
7199;SDS011;3641;49.082;8.200;2023-09-30T04:58:10;4.65;;;2.22;;
7199;SDS011;3641;49.082;8.200;2023-09-30T05:00:37;6.53;;;2.10;;
7199;SDS011;3641;49.082;8.200;2023-09-30T05:03:04;6.95;;;2.38;;
7199;SDS011;3641;49.082;8.200;2023-09-30T05:05:32;5.95;;;2.80;;
7199;SDS011;3641;49.082;8.200;2023-09-30T05:07:59;6.40;;;2.45;;
7199;SDS011;3641;49.082;8.200;2023-09-30T05:10:26;5.50;;;2.60;;
7199;SDS011;3641;49.082;8.200;2023-09-30T05:12:53;4.60;;;2.40;;
7199;SDS011;3641;49.082;8.200;2023-09-30T05:15:21;5.22;;;2.05;;
7199;SDS011;3641;49.082;8.200;2023-09-30T05:17:48;6.70;;;2.40;;
7199;SDS011;3641;49.082;8.200;2023-09-30T05:20:15;5.85;;;2.42;;
7199;SDS011;3641;49.082;8.200;2023-09-30T05:22:44;4.90;;;2.50;;
7199;SDS011;3641;49.082;8.200;2023-09-30T05:25:11;5.07;;;2.25;;
7199;SDS011;3641;49.082;8.200;2023-09-30T05:27:38;7.97;;;2.30;;
7199;SDS011;3641;49.082;8.200;2023-09-30T05:30:05;6.15;;;2.38;;
7199;SDS011;3641;49.082;8.200;2023-09-30T05:32:31;4.72;;;2.17;;
7199;SDS011;3641;49.082;8.200;2023-09-30T05:34:57;5.88;;;2.88;;
7199;SDS011;3641;49.082;8.200;2023-09-30T05:37:25;8.18;;;3.65;;
7199;SDS011;3641;49.082;8.200;2023-09-30T05:39:54;7.95;;;3.40;;
7199;SDS011;3641;49.082;8.200;2023-09-30T05:42:20;7.35;;;3.10;;
7199;SDS011;3641;49.082;8.200;2023-09-30T05:44:47;6.00;;;2.65;;
7199;SDS011;3641;49.082;8.200;2023-09-30T05:47:14;5.63;;;2.45;;
7199;SDS011;3641;49.082;8.200;2023-09-30T05:49:40;5.95;;;2.70;;
7199;SDS011;3641;49.082;8.200;2023-09-30T05:52:07;5.38;;;2.70;;
7199;SDS011;3641;49.082;8.200;2023-09-30T05:54:33;5.47;;;2.83;;
7199;SDS011;3641;49.082;8.200;2023-09-30T05:57:01;5.05;;;2.92;;
7199;SDS011;3641;49.082;8.200;2023-09-30T05:59:28;6.72;;;3.35;;
7199;SDS011;3641;49.082;8.200;2023-09-30T06:01:55;4.85;;;2.75;;
7199;SDS011;3641;49.082;8.200;2023-09-30T06:04:21;7.95;;;3.22;;
7199;SDS011;3641;49.082;8.200;2023-09-30T06:06:48;5.40;;;3.00;;
7199;SDS011;3641;49.082;8.200;2023-09-30T06:09:14;8.38;;;3.30;;
7199;SDS011;3641;49.082;8.200;2023-09-30T06:11:41;6.18;;;3.33;;
7199;SDS011;3641;49.082;8.200;2023-09-30T06:14:08;6.65;;;3.65;;
7199;SDS011;3641;49.082;8.200;2023-09-30T06:16:35;7.10;;;3.22;;
7199;SDS011;3641;49.082;8.200;2023-09-30T06:19:01;11.13;;;5.15;;
7199;SDS011;3641;49.082;8.200;2023-09-30T06:21:29;13.02;;;5.78;;
7199;SDS011;3641;49.082;8.200;2023-09-30T06:23:56;9.40;;;5.60;;
7199;SDS011;3641;49.082;8.200;2023-09-30T06:26:22;9.50;;;5.15;;
7199;SDS011;3641;49.082;8.200;2023-09-30T06:28:50;17.10;;;5.72;;
7199;SDS011;3641;49.082;8.200;2023-09-30T06:31:20;12.00;;;4.93;;
7199;SDS011;3641;49.082;8.200;2023-09-30T06:33:48;9.85;;;4.88;;
7199;SDS011;3641;49.082;8.200;2023-09-30T06:36:14;11.77;;;4.68;;
7199;SDS011;3641;49.082;8.200;2023-09-30T06:38:41;15.13;;;5.35;;
7199;SDS011;3641;49.082;8.200;2023-09-30T06:41:08;8.57;;;4.82;;
7199;SDS011;3641;49.082;8.200;2023-09-30T06:43:35;11.98;;;5.63;;
7199;SDS011;3641;49.082;8.200;2023-09-30T06:46:05;11.15;;;5.55;;
7199;SDS011;3641;49.082;8.200;2023-09-30T06:48:35;8.70;;;5.00;;
7199;SDS011;3641;49.082;8.200;2023-09-30T06:51:02;7.50;;;4.43;;
7199;SDS011;3641;49.082;8.200;2023-09-30T06:53:29;10.00;;;4.43;;
7199;SDS011;3641;49.082;8.200;2023-09-30T06:55:55;8.23;;;4.47;;
7199;SDS011;3641;49.082;8.200;2023-09-30T06:58:22;11.07;;;5.05;;
7199;SDS011;3641;49.082;8.200;2023-09-30T07:00:49;12.68;;;4.57;;
7199;SDS011;3641;49.082;8.200;2023-09-30T07:03:16;8.73;;;4.75;;
7199;SDS011;3641;49.082;8.200;2023-09-30T07:05:45;9.65;;;4.55;;
7199;SDS011;3641;49.082;8.200;2023-09-30T07:08:14;9.68;;;4.60;;
7199;SDS011;3641;49.082;8.200;2023-09-30T07:10:41;11.55;;;5.25;;
7199;SDS011;3641;49.082;8.200;2023-09-30T07:13:08;9.07;;;4.85;;
7199;SDS011;3641;49.082;8.200;2023-09-30T07:15:34;10.15;;;5.00;;
7199;SDS011;3641;49.082;8.200;2023-09-30T07:18:01;8.55;;;4.57;;
7199;SDS011;3641;49.082;8.200;2023-09-30T07:20:29;10.02;;;5.07;;
7199;SDS011;3641;49.082;8.200;2023-09-30T07:22:59;9.55;;;4.43;;
7199;SDS011;3641;49.082;8.200;2023-09-30T07:25:25;11.45;;;5.43;;
7199;SDS011;3641;49.082;8.200;2023-09-30T07:27:52;12.45;;;4.93;;
7199;SDS011;3641;49.082;8.200;2023-09-30T07:30:18;10.15;;;5.40;;
7199;SDS011;3641;49.082;8.200;2023-09-30T07:32:45;12.27;;;5.35;;
7199;SDS011;3641;49.082;8.200;2023-09-30T07:35:12;15.45;;;6.32;;
7199;SDS011;3641;49.082;8.200;2023-09-30T07:37:40;14.65;;;6.32;;
7199;SDS011;3641;49.082;8.200;2023-09-30T07:40:08;11.85;;;6.15;;
7199;SDS011;3641;49.082;8.200;2023-09-30T07:42:36;14.32;;;6.28;;
7199;SDS011;3641;49.082;8.200;2023-09-30T07:45:02;13.85;;;6.43;;
7199;SDS011;3641;49.082;8.200;2023-09-30T07:47:29;13.20;;;6.68;;
7199;SDS011;3641;49.082;8.200;2023-09-30T07:49:58;12.85;;;6.50;;
7199;SDS011;3641;49.082;8.200;2023-09-30T07:52:25;12.48;;;6.38;;
7199;SDS011;3641;49.082;8.200;2023-09-30T07:54:52;11.90;;;5.93;;
7199;SDS011;3641;49.082;8.200;2023-09-30T07:57:19;13.98;;;6.60;;
7199;SDS011;3641;49.082;8.200;2023-09-30T07:59:46;14.07;;;6.63;;
7199;SDS011;3641;49.082;8.200;2023-09-30T08:02:13;15.00;;;6.53;;
7199;SDS011;3641;49.082;8.200;2023-09-30T08:04:40;14.85;;;6.22;;
7199;SDS011;3641;49.082;8.200;2023-09-30T08:07:06;16.15;;;6.30;;
7199;SDS011;3641;49.082;8.200;2023-09-30T08:09:34;12.20;;;6.10;;
7199;SDS011;3641;49.082;8.200;2023-09-30T08:12:02;12.43;;;6.20;;
7199;SDS011;3641;49.082;8.200;2023-09-30T08:14:30;15.18;;;5.90;;
7199;SDS011;3641;49.082;8.200;2023-09-30T08:16:57;12.35;;;6.10;;
7199;SDS011;3641;49.082;8.200;2023-09-30T08:19:23;13.38;;;6.15;;
7199;SDS011;3641;49.082;8.200;2023-09-30T08:21:50;15.32;;;6.68;;
7199;SDS011;3641;49.082;8.200;2023-09-30T08:24:17;12.85;;;5.82;;
7199;SDS011;3641;49.082;8.200;2023-09-30T08:26:43;16.20;;;7.05;;
7199;SDS011;3641;49.082;8.200;2023-09-30T08:29:10;14.80;;;6.95;;
7199;SDS011;3641;49.082;8.200;2023-09-30T08:31:38;14.27;;;6.75;;
7199;SDS011;3641;49.082;8.200;2023-09-30T08:34:04;15.85;;;6.70;;
7199;SDS011;3641;49.082;8.200;2023-09-30T08:36:30;12.52;;;6.82;;
7199;SDS011;3641;49.082;8.200;2023-09-30T08:38:58;13.30;;;6.38;;
7199;SDS011;3641;49.082;8.200;2023-09-30T08:41:26;15.63;;;6.03;;
7199;SDS011;3641;49.082;8.200;2023-09-30T08:43:57;14.93;;;7.50;;
7199;SDS011;3641;49.082;8.200;2023-09-30T08:46:26;12.15;;;6.90;;
7199;SDS011;3641;49.082;8.200;2023-09-30T08:48:57;14.32;;;6.65;;
7199;SDS011;3641;49.082;8.200;2023-09-30T08:51:24;15.55;;;6.60;;
7199;SDS011;3641;49.082;8.200;2023-09-30T08:53:51;13.43;;;6.65;;
7199;SDS011;3641;49.082;8.200;2023-09-30T08:56:20;12.70;;;6.47;;
7199;SDS011;3641;49.082;8.200;2023-09-30T08:58:50;15.55;;;6.40;;
7199;SDS011;3641;49.082;8.200;2023-09-30T09:01:16;12.85;;;6.15;;
7199;SDS011;3641;49.082;8.200;2023-09-30T09:03:43;13.50;;;6.10;;
7199;SDS011;3641;49.082;8.200;2023-09-30T09:06:13;14.43;;;6.88;;
7199;SDS011;3641;49.082;8.200;2023-09-30T09:08:40;13.27;;;6.75;;
7199;SDS011;3641;49.082;8.200;2023-09-30T09:11:07;16.67;;;7.25;;
7199;SDS011;3641;49.082;8.200;2023-09-30T09:13:45;12.82;;;6.32;;
7199;SDS011;3641;49.082;8.200;2023-09-30T09:16:14;15.43;;;6.82;;
7199;SDS011;3641;49.082;8.200;2023-09-30T09:18:41;13.90;;;7.05;;
7199;SDS011;3641;49.082;8.200;2023-09-30T09:21:07;15.35;;;6.40;;
7199;SDS011;3641;49.082;8.200;2023-09-30T09:23:39;14.57;;;7.18;;
7199;SDS011;3641;49.082;8.200;2023-09-30T09:26:07;13.80;;;6.57;;
7199;SDS011;3641;49.082;8.200;2023-09-30T09:28:35;12.07;;;6.28;;
7199;SDS011;3641;49.082;8.200;2023-09-30T09:31:04;13.85;;;6.75;;
7199;SDS011;3641;49.082;8.200;2023-09-30T09:33:46;15.00;;;5.95;;
7199;SDS011;3641;49.082;8.200;2023-09-30T09:36:12;14.68;;;6.75;;
7199;SDS011;3641;49.082;8.200;2023-09-30T09:38:47;15.07;;;5.72;;
7199;SDS011;3641;49.082;8.200;2023-09-30T09:41:15;11.75;;;6.03;;
7199;SDS011;3641;49.082;8.200;2023-09-30T09:43:42;15.68;;;6.70;;
7199;SDS011;3641;49.082;8.200;2023-09-30T09:46:10;12.82;;;6.18;;
7199;SDS011;3641;49.082;8.200;2023-09-30T09:48:37;13.32;;;5.43;;
7199;SDS011;3641;49.082;8.200;2023-09-30T09:51:04;10.73;;;5.05;;
7199;SDS011;3641;49.082;8.200;2023-09-30T09:53:32;12.40;;;5.63;;
7199;SDS011;3641;49.082;8.200;2023-09-30T09:56:02;11.23;;;5.57;;
7199;SDS011;3641;49.082;8.200;2023-09-30T09:58:31;16.27;;;6.95;;
7199;SDS011;3641;49.082;8.200;2023-09-30T10:01:00;13.13;;;5.82;;
7199;SDS011;3641;49.082;8.200;2023-09-30T10:03:27;11.50;;;5.78;;
7199;SDS011;3641;49.082;8.200;2023-09-30T10:05:53;16.58;;;6.32;;
7199;SDS011;3641;49.082;8.200;2023-09-30T10:08:20;14.30;;;5.78;;
7199;SDS011;3641;49.082;8.200;2023-09-30T10:10:53;12.40;;;5.80;;
7199;SDS011;3641;49.082;8.200;2023-09-30T10:19:18;16.05;;;5.57;;
7199;SDS011;3641;49.082;8.200;2023-09-30T10:24:49;16.13;;;5.40;;
7199;SDS011;3641;49.082;8.200;2023-09-30T10:27:32;12.00;;;4.97;;
7199;SDS011;3641;49.082;8.200;2023-09-30T10:30:10;12.00;;;5.15;;
7199;SDS011;3641;49.082;8.200;2023-09-30T10:35:45;15.13;;;6.00;;
7199;SDS011;3641;49.082;8.200;2023-09-30T10:41:08;17.38;;;5.32;;
7199;SDS011;3641;49.082;8.200;2023-09-30T10:43:37;16.25;;;5.50;;
7199;SDS011;3641;49.082;8.200;2023-09-30T10:49:10;11.10;;;4.28;;
7199;SDS011;3641;49.082;8.200;2023-09-30T10:51:43;13.27;;;4.85;;
7199;SDS011;3641;49.082;8.200;2023-09-30T10:54:11;11.55;;;4.85;;
7199;SDS011;3641;49.082;8.200;2023-09-30T10:56:38;10.05;;;4.63;;
7199;SDS011;3641;49.082;8.200;2023-09-30T10:59:05;11.07;;;4.65;;
7199;SDS011;3641;49.082;8.200;2023-09-30T11:01:33;10.32;;;4.78;;
7199;SDS011;3641;49.082;8.200;2023-09-30T11:04:01;10.57;;;4.60;;
7199;SDS011;3641;49.082;8.200;2023-09-30T11:06:30;10.43;;;4.45;;
7199;SDS011;3641;49.082;8.200;2023-09-30T11:08:58;10.02;;;4.50;;
7199;SDS011;3641;49.082;8.200;2023-09-30T11:11:34;12.35;;;4.78;;
7199;SDS011;3641;49.082;8.200;2023-09-30T11:14:02;10.23;;;4.07;;
7199;SDS011;3641;49.082;8.200;2023-09-30T11:16:40;11.00;;;4.47;;
7199;SDS011;3641;49.082;8.200;2023-09-30T11:19:08;8.98;;;3.83;;
7199;SDS011;3641;49.082;8.200;2023-09-30T11:21:34;8.73;;;4.40;;
7199;SDS011;3641;49.082;8.200;2023-09-30T11:24:01;10.25;;;4.65;;
7199;SDS011;3641;49.082;8.200;2023-09-30T11:26:31;10.40;;;4.15;;
7199;SDS011;3641;49.082;8.200;2023-09-30T11:29:04;12.32;;;4.53;;
7199;SDS011;3641;49.082;8.200;2023-09-30T11:31:31;9.32;;;3.92;;
7199;SDS011;3641;49.082;8.200;2023-09-30T11:34:00;9.82;;;3.50;;
7199;SDS011;3641;49.082;8.200;2023-09-30T11:36:29;10.40;;;4.00;;
7199;SDS011;3641;49.082;8.200;2023-09-30T11:38:56;9.35;;;4.22;;
7199;SDS011;3641;49.082;8.200;2023-09-30T11:41:22;9.43;;;4.10;;
7199;SDS011;3641;49.082;8.200;2023-09-30T11:43:59;10.50;;;4.57;;
7199;SDS011;3641;49.082;8.200;2023-09-30T11:46:29;9.52;;;4.03;;
7199;SDS011;3641;49.082;8.200;2023-09-30T11:49:00;10.00;;;4.03;;
7199;SDS011;3641;49.082;8.200;2023-09-30T11:51:27;11.63;;;4.30;;
7199;SDS011;3641;49.082;8.200;2023-09-30T11:53:54;10.15;;;4.10;;
7199;SDS011;3641;49.082;8.200;2023-09-30T11:56:22;9.93;;;4.32;;
7199;SDS011;3641;49.082;8.200;2023-09-30T11:58:54;12.07;;;4.40;;
7199;SDS011;3641;49.082;8.200;2023-09-30T12:01:21;12.32;;;4.40;;
7199;SDS011;3641;49.082;8.200;2023-09-30T12:03:48;9.05;;;3.95;;
7199;SDS011;3641;49.082;8.200;2023-09-30T12:06:16;10.18;;;4.13;;
7199;SDS011;3641;49.082;8.200;2023-09-30T12:08:42;9.23;;;4.03;;
7199;SDS011;3641;49.082;8.200;2023-09-30T12:11:10;10.18;;;4.07;;
7199;SDS011;3641;49.082;8.200;2023-09-30T12:13:38;9.68;;;4.30;;
7199;SDS011;3641;49.082;8.200;2023-09-30T12:16:04;9.65;;;4.18;;
7199;SDS011;3641;49.082;8.200;2023-09-30T12:18:31;9.98;;;4.50;;
7199;SDS011;3641;49.082;8.200;2023-09-30T12:20:57;9.27;;;3.70;;
7199;SDS011;3641;49.082;8.200;2023-09-30T12:23:25;12.40;;;4.72;;
7199;SDS011;3641;49.082;8.200;2023-09-30T12:25:52;9.13;;;3.97;;
7199;SDS011;3641;49.082;8.200;2023-09-30T12:28:19;13.68;;;4.43;;
7199;SDS011;3641;49.082;8.200;2023-09-30T12:30:46;9.57;;;4.03;;
7199;SDS011;3641;49.082;8.200;2023-09-30T12:33:12;12.00;;;4.65;;
7199;SDS011;3641;49.082;8.200;2023-09-30T12:35:38;11.68;;;4.55;;
7199;SDS011;3641;49.082;8.200;2023-09-30T12:38:05;11.65;;;5.13;;
7199;SDS011;3641;49.082;8.200;2023-09-30T12:40:33;10.48;;;4.57;;
7199;SDS011;3641;49.082;8.200;2023-09-30T12:42:59;12.07;;;4.85;;
7199;SDS011;3641;49.082;8.200;2023-09-30T12:45:26;14.15;;;5.00;;
7199;SDS011;3641;49.082;8.200;2023-09-30T12:47:52;11.55;;;4.65;;
7199;SDS011;3641;49.082;8.200;2023-09-30T12:50:21;13.35;;;4.57;;
7199;SDS011;3641;49.082;8.200;2023-09-30T12:52:48;13.15;;;4.75;;
7199;SDS011;3641;49.082;8.200;2023-09-30T12:55:14;12.40;;;4.68;;
7199;SDS011;3641;49.082;8.200;2023-09-30T12:57:42;10.07;;;4.40;;
7199;SDS011;3641;49.082;8.200;2023-09-30T13:00:09;12.45;;;4.85;;
7199;SDS011;3641;49.082;8.200;2023-09-30T13:02:36;12.25;;;4.53;;
7199;SDS011;3641;49.082;8.200;2023-09-30T13:05:03;13.07;;;5.03;;
7199;SDS011;3641;49.082;8.200;2023-09-30T13:07:31;10.50;;;4.45;;
7199;SDS011;3641;49.082;8.200;2023-09-30T13:09:58;11.10;;;4.55;;
7199;SDS011;3641;49.082;8.200;2023-09-30T13:12:26;12.88;;;4.93;;
7199;SDS011;3641;49.082;8.200;2023-09-30T13:14:57;11.23;;;4.50;;
7199;SDS011;3641;49.082;8.200;2023-09-30T13:17:23;11.25;;;4.82;;
7199;SDS011;3641;49.082;8.200;2023-09-30T13:19:50;10.20;;;4.70;;
7199;SDS011;3641;49.082;8.200;2023-09-30T13:22:16;14.40;;;6.05;;
7199;SDS011;3641;49.082;8.200;2023-09-30T13:24:43;11.20;;;4.75;;
7199;SDS011;3641;49.082;8.200;2023-09-30T13:27:09;13.63;;;4.55;;
7199;SDS011;3641;49.082;8.200;2023-09-30T13:29:36;15.65;;;5.30;;
7199;SDS011;3641;49.082;8.200;2023-09-30T13:32:04;9.85;;;4.80;;
7199;SDS011;3641;49.082;8.200;2023-09-30T13:34:31;9.90;;;4.35;;
7199;SDS011;3641;49.082;8.200;2023-09-30T13:36:57;10.63;;;4.75;;
7199;SDS011;3641;49.082;8.200;2023-09-30T13:39:26;11.18;;;4.50;;
7199;SDS011;3641;49.082;8.200;2023-09-30T13:41:54;11.30;;;4.70;;
7199;SDS011;3641;49.082;8.200;2023-09-30T13:44:20;10.77;;;4.90;;
7199;SDS011;3641;49.082;8.200;2023-09-30T13:46:48;12.27;;;4.78;;
7199;SDS011;3641;49.082;8.200;2023-09-30T13:49:15;14.45;;;5.43;;
7199;SDS011;3641;49.082;8.200;2023-09-30T13:51:42;17.55;;;5.30;;
7199;SDS011;3641;49.082;8.200;2023-09-30T13:54:09;11.25;;;4.80;;
7199;SDS011;3641;49.082;8.200;2023-09-30T13:56:35;12.23;;;4.70;;
7199;SDS011;3641;49.082;8.200;2023-09-30T13:59:02;12.63;;;4.80;;
7199;SDS011;3641;49.082;8.200;2023-09-30T14:01:28;11.75;;;5.25;;
7199;SDS011;3641;49.082;8.200;2023-09-30T14:03:55;11.13;;;5.10;;
7199;SDS011;3641;49.082;8.200;2023-09-30T14:06:24;12.48;;;5.15;;
7199;SDS011;3641;49.082;8.200;2023-09-30T14:08:51;10.80;;;4.65;;
7199;SDS011;3641;49.082;8.200;2023-09-30T14:11:18;9.75;;;4.80;;
7199;SDS011;3641;49.082;8.200;2023-09-30T14:13:44;10.25;;;4.65;;
7199;SDS011;3641;49.082;8.200;2023-09-30T14:16:10;14.48;;;5.47;;
7199;SDS011;3641;49.082;8.200;2023-09-30T14:18:37;11.13;;;4.63;;
7199;SDS011;3641;49.082;8.200;2023-09-30T14:21:04;10.07;;;4.97;;
7199;SDS011;3641;49.082;8.200;2023-09-30T14:23:32;9.77;;;4.60;;
7199;SDS011;3641;49.082;8.200;2023-09-30T14:25:59;9.80;;;4.47;;
7199;SDS011;3641;49.082;8.200;2023-09-30T14:28:29;15.80;;;5.95;;
7199;SDS011;3641;49.082;8.200;2023-09-30T14:30:56;12.50;;;5.35;;
7199;SDS011;3641;49.082;8.200;2023-09-30T14:33:23;10.88;;;5.22;;
7199;SDS011;3641;49.082;8.200;2023-09-30T14:35:49;13.13;;;5.10;;
7199;SDS011;3641;49.082;8.200;2023-09-30T14:38:16;11.77;;;5.25;;
7199;SDS011;3641;49.082;8.200;2023-09-30T14:40:43;11.93;;;5.03;;
7199;SDS011;3641;49.082;8.200;2023-09-30T14:43:10;12.65;;;5.10;;
7199;SDS011;3641;49.082;8.200;2023-09-30T14:45:37;13.02;;;4.55;;
7199;SDS011;3641;49.082;8.200;2023-09-30T14:48:04;13.60;;;6.53;;
7199;SDS011;3641;49.082;8.200;2023-09-30T14:50:31;10.20;;;4.60;;
7199;SDS011;3641;49.082;8.200;2023-09-30T14:52:57;12.35;;;4.78;;
7199;SDS011;3641;49.082;8.200;2023-09-30T14:55:24;10.50;;;4.60;;
7199;SDS011;3641;49.082;8.200;2023-09-30T14:57:52;14.23;;;5.63;;
7199;SDS011;3641;49.082;8.200;2023-09-30T15:00:19;12.95;;;5.97;;
7199;SDS011;3641;49.082;8.200;2023-09-30T15:02:47;13.15;;;5.82;;
7199;SDS011;3641;49.082;8.200;2023-09-30T15:05:15;12.75;;;5.80;;
7199;SDS011;3641;49.082;8.200;2023-09-30T15:07:41;12.18;;;5.05;;
7199;SDS011;3641;49.082;8.200;2023-09-30T15:10:08;12.50;;;4.85;;
7199;SDS011;3641;49.082;8.200;2023-09-30T15:12:35;11.25;;;4.20;;
7199;SDS011;3641;49.082;8.200;2023-09-30T15:15:03;9.88;;;4.80;;
7199;SDS011;3641;49.082;8.200;2023-09-30T15:17:30;10.48;;;4.28;;
7199;SDS011;3641;49.082;8.200;2023-09-30T15:19:57;10.25;;;4.82;;
7199;SDS011;3641;49.082;8.200;2023-09-30T15:22:24;10.05;;;4.50;;
7199;SDS011;3641;49.082;8.200;2023-09-30T15:24:50;12.15;;;5.45;;
7199;SDS011;3641;49.082;8.200;2023-09-30T15:27:17;14.35;;;6.10;;